sensor_id;sensor_type;location;lat;lon;timestamp;P1;durP1;ratioP1;P2;durP2;ratioP2
56868;SDS011;42754;0.000;0.000;2022-09-06T00:00:36;5.68;;;2.22;;
56868;SDS011;42754;0.000;0.000;2022-09-06T00:03:02;3.00;;;1.88;;
56868;SDS011;42754;0.000;0.000;2022-09-06T00:05:29;6.43;;;2.30;;
56868;SDS011;42754;0.000;0.000;2022-09-06T00:08:01;2.83;;;2.05;;
56868;SDS011;42754;0.000;0.000;2022-09-06T00:10:28;4.93;;;2.22;;
56868;SDS011;42754;0.000;0.000;2022-09-06T00:12:58;4.28;;;2.28;;
56868;SDS011;42754;0.000;0.000;2022-09-06T00:15:25;3.05;;;2.28;;
56868;SDS011;42754;0.000;0.000;2022-09-06T00:17:50;4.65;;;2.40;;
56868;SDS011;42754;0.000;0.000;2022-09-06T00:20:16;5.43;;;2.15;;
56868;SDS011;42754;0.000;0.000;2022-09-06T00:22:41;4.25;;;2.35;;
56868;SDS011;42754;0.000;0.000;2022-09-06T00:25:07;5.55;;;2.78;;
56868;SDS011;42754;0.000;0.000;2022-09-06T00:27:33;5.82;;;2.53;;
56868;SDS011;42754;0.000;0.000;2022-09-06T00:29:59;3.25;;;2.08;;
56868;SDS011;42754;0.000;0.000;2022-09-06T00:32:25;3.28;;;2.38;;
56868;SDS011;42754;0.000;0.000;2022-09-06T00:34:50;4.22;;;2.13;;
56868;SDS011;42754;0.000;0.000;2022-09-06T00:37:16;4.38;;;2.45;;
56868;SDS011;42754;0.000;0.000;2022-09-06T00:39:41;8.00;;;2.88;;
56868;SDS011;42754;0.000;0.000;2022-09-06T00:42:11;6.10;;;2.60;;
56868;SDS011;42754;0.000;0.000;2022-09-06T00:44:37;6.60;;;2.30;;
56868;SDS011;42754;0.000;0.000;2022-09-06T00:47:06;5.53;;;2.53;;
56868;SDS011;42754;0.000;0.000;2022-09-06T00:49:37;4.65;;;2.60;;
56868;SDS011;42754;0.000;0.000;2022-09-06T00:52:09;8.18;;;2.85;;
56868;SDS011;42754;0.000;0.000;2022-09-06T00:54:37;7.80;;;2.53;;
56868;SDS011;42754;0.000;0.000;2022-09-06T00:57:07;4.25;;;2.55;;
56868;SDS011;42754;0.000;0.000;2022-09-06T00:59:33;4.78;;;2.30;;
56868;SDS011;42754;0.000;0.000;2022-09-06T01:02:01;6.95;;;2.80;;
56868;SDS011;42754;0.000;0.000;2022-09-06T01:04:31;5.20;;;3.10;;
56868;SDS011;42754;0.000;0.000;2022-09-06T01:07:03;6.55;;;2.78;;
56868;SDS011;42754;0.000;0.000;2022-09-06T01:21:23;5.15;;;2.78;;
56868;SDS011;42754;0.000;0.000;2022-09-06T01:34:58;5.80;;;3.15;;
56868;SDS011;42754;0.000;0.000;2022-09-06T01:37:50;10.05;;;3.97;;
56868;SDS011;42754;0.000;0.000;2022-09-06T01:40:15;6.68;;;3.10;;
56868;SDS011;42754;0.000;0.000;2022-09-06T01:42:41;6.72;;;3.30;;
56868;SDS011;42754;0.000;0.000;2022-09-06T01:45:11;5.65;;;2.88;;
56868;SDS011;42754;0.000;0.000;2022-09-06T01:47:47;3.90;;;2.45;;
56868;SDS011;42754;0.000;0.000;2022-09-06T02:02:38;4.10;;;2.90;;
56868;SDS011;42754;0.000;0.000;2022-09-06T02:08:07;3.95;;;3.05;;
56868;SDS011;42754;0.000;0.000;2022-09-06T02:10:39;5.00;;;3.10;;
56868;SDS011;42754;0.000;0.000;2022-09-06T02:13:10;4.35;;;3.40;;
56868;SDS011;42754;0.000;0.000;2022-09-06T02:15:41;4.85;;;3.08;;
56868;SDS011;42754;0.000;0.000;2022-09-06T02:18:39;5.60;;;3.33;;
56868;SDS011;42754;0.000;0.000;2022-09-06T02:21:12;6.45;;;3.00;;
56868;SDS011;42754;0.000;0.000;2022-09-06T02:23:40;4.82;;;2.60;;
56868;SDS011;42754;0.000;0.000;2022-09-06T02:26:11;4.03;;;2.55;;
56868;SDS011;42754;0.000;0.000;2022-09-06T02:28:41;2.60;;;2.28;;
56868;SDS011;42754;0.000;0.000;2022-09-06T02:31:13;3.08;;;2.42;;
56868;SDS011;42754;0.000;0.000;2022-09-06T02:33:44;4.35;;;2.90;;
56868;SDS011;42754;0.000;0.000;2022-09-06T02:36:11;6.20;;;3.17;;
56868;SDS011;42754;0.000;0.000;2022-09-06T02:38:39;4.32;;;2.95;;
56868;SDS011;42754;0.000;0.000;2022-09-06T02:41:06;4.22;;;3.13;;
56868;SDS011;42754;0.000;0.000;2022-09-06T02:43:33;4.80;;;3.10;;
56868;SDS011;42754;0.000;0.000;2022-09-06T02:45:59;6.28;;;3.10;;
56868;SDS011;42754;0.000;0.000;2022-09-06T02:48:24;5.30;;;2.80;;
56868;SDS011;42754;0.000;0.000;2022-09-06T02:50:50;6.70;;;3.58;;
56868;SDS011;42754;0.000;0.000;2022-09-06T02:53:16;6.38;;;3.22;;
56868;SDS011;42754;0.000;0.000;2022-09-06T02:55:42;4.32;;;3.20;;
56868;SDS011;42754;0.000;0.000;2022-09-06T02:58:10;5.57;;;3.53;;
56868;SDS011;42754;0.000;0.000;2022-09-06T03:00:36;6.22;;;4.00;;
56868;SDS011;42754;0.000;0.000;2022-09-06T03:03:03;6.15;;;3.03;;
56868;SDS011;42754;0.000;0.000;2022-09-06T03:05:29;4.05;;;3.45;;
56868;SDS011;42754;0.000;0.000;2022-09-06T03:07:55;10.88;;;4.15;;
56868;SDS011;42754;0.000;0.000;2022-09-06T03:10:22;8.70;;;4.82;;
56868;SDS011;42754;0.000;0.000;2022-09-06T03:12:48;11.02;;;5.10;;
56868;SDS011;42754;0.000;0.000;2022-09-06T03:15:14;7.32;;;4.75;;
56868;SDS011;42754;0.000;0.000;2022-09-06T03:17:41;7.18;;;5.32;;
56868;SDS011;42754;0.000;0.000;2022-09-06T03:20:07;8.70;;;5.38;;
56868;SDS011;42754;0.000;0.000;2022-09-06T03:22:35;8.52;;;5.20;;
56868;SDS011;42754;0.000;0.000;2022-09-06T03:25:01;9.10;;;5.35;;
56868;SDS011;42754;0.000;0.000;2022-09-06T03:27:27;7.43;;;5.25;;
56868;SDS011;42754;0.000;0.000;2022-09-06T03:29:53;7.75;;;4.80;;
56868;SDS011;42754;0.000;0.000;2022-09-06T03:32:19;8.45;;;4.78;;
56868;SDS011;42754;0.000;0.000;2022-09-06T03:34:44;7.53;;;4.72;;
56868;SDS011;42754;0.000;0.000;2022-09-06T03:37:10;7.35;;;4.55;;
56868;SDS011;42754;0.000;0.000;2022-09-06T03:39:35;6.88;;;3.72;;
56868;SDS011;42754;0.000;0.000;2022-09-06T03:42:01;6.75;;;4.38;;
56868;SDS011;42754;0.000;0.000;2022-09-06T03:44:27;6.40;;;4.68;;
56868;SDS011;42754;0.000;0.000;2022-09-06T03:46:53;7.63;;;4.60;;
56868;SDS011;42754;0.000;0.000;2022-09-06T03:49:18;5.57;;;4.22;;
56868;SDS011;42754;0.000;0.000;2022-09-06T03:51:44;7.50;;;3.88;;
56868;SDS011;42754;0.000;0.000;2022-09-06T03:54:10;5.53;;;3.30;;
56868;SDS011;42754;0.000;0.000;2022-09-06T03:56:35;5.30;;;4.13;;
56868;SDS011;42754;0.000;0.000;2022-09-06T03:59:01;6.88;;;4.00;;
56868;SDS011;42754;0.000;0.000;2022-09-06T04:01:27;6.85;;;4.35;;
56868;SDS011;42754;0.000;0.000;2022-09-06T04:03:52;6.63;;;4.28;;
56868;SDS011;42754;0.000;0.000;2022-09-06T04:06:18;10.98;;;5.75;;
56868;SDS011;42754;0.000;0.000;2022-09-06T04:08:44;11.10;;;4.82;;
56868;SDS011;42754;0.000;0.000;2022-09-06T04:11:09;9.15;;;5.00;;
56868;SDS011;42754;0.000;0.000;2022-09-06T04:13:35;9.13;;;5.35;;
56868;SDS011;42754;0.000;0.000;2022-09-06T04:16:02;7.93;;;5.30;;
56868;SDS011;42754;0.000;0.000;2022-09-06T04:18:29;9.73;;;4.80;;
56868;SDS011;42754;0.000;0.000;2022-09-06T04:20:55;7.97;;;4.65;;
56868;SDS011;42754;0.000;0.000;2022-09-06T04:23:22;9.85;;;4.88;;
56868;SDS011;42754;0.000;0.000;2022-09-06T04:25:51;5.97;;;4.45;;
56868;SDS011;42754;0.000;0.000;2022-09-06T04:28:18;7.38;;;4.55;;
56868;SDS011;42754;0.000;0.000;2022-09-06T04:30:52;9.15;;;4.13;;
56868;SDS011;42754;0.000;0.000;2022-09-06T04:33:19;8.05;;;5.25;;
56868;SDS011;42754;0.000;0.000;2022-09-06T04:35:49;7.90;;;5.03;;
56868;SDS011;42754;0.000;0.000;2022-09-06T04:38:17;10.23;;;4.68;;
56868;SDS011;42754;0.000;0.000;2022-09-06T04:40:43;9.05;;;4.20;;
56868;SDS011;42754;0.000;0.000;2022-09-06T04:43:10;7.47;;;4.70;;
56868;SDS011;42754;0.000;0.000;2022-09-06T04:45:35;7.00;;;4.72;;
56868;SDS011;42754;0.000;0.000;2022-09-06T04:48:05;5.63;;;4.50;;
56868;SDS011;42754;0.000;0.000;2022-09-06T04:50:30;9.40;;;4.10;;
56868;SDS011;42754;0.000;0.000;2022-09-06T04:52:56;7.93;;;4.70;;
56868;SDS011;42754;0.000;0.000;2022-09-06T04:55:21;6.00;;;4.13;;
56868;SDS011;42754;0.000;0.000;2022-09-06T04:57:47;6.85;;;3.97;;
56868;SDS011;42754;0.000;0.000;2022-09-06T05:00:13;13.70;;;4.90;;
56868;SDS011;42754;0.000;0.000;2022-09-06T05:02:40;5.97;;;4.50;;
56868;SDS011;42754;0.000;0.000;2022-09-06T05:05:06;7.80;;;5.25;;
56868;SDS011;42754;0.000;0.000;2022-09-06T05:07:32;10.02;;;5.63;;
56868;SDS011;42754;0.000;0.000;2022-09-06T05:09:57;10.18;;;4.95;;
56868;SDS011;42754;0.000;0.000;2022-09-06T05:12:23;7.60;;;5.30;;
56868;SDS011;42754;0.000;0.000;2022-09-06T05:14:49;11.13;;;5.07;;
56868;SDS011;42754;0.000;0.000;2022-09-06T05:17:14;9.38;;;5.20;;
56868;SDS011;42754;0.000;0.000;2022-09-06T05:19:40;9.82;;;4.95;;
56868;SDS011;42754;0.000;0.000;2022-09-06T05:22:05;7.15;;;4.50;;
56868;SDS011;42754;0.000;0.000;2022-09-06T05:24:31;6.57;;;4.40;;
56868;SDS011;42754;0.000;0.000;2022-09-06T05:26:56;8.32;;;5.03;;
56868;SDS011;42754;0.000;0.000;2022-09-06T05:29:22;7.10;;;4.80;;
56868;SDS011;42754;0.000;0.000;2022-09-06T05:31:48;7.60;;;4.93;;
56868;SDS011;42754;0.000;0.000;2022-09-06T05:34:14;10.40;;;5.32;;
56868;SDS011;42754;0.000;0.000;2022-09-06T05:36:40;10.60;;;5.07;;
56868;SDS011;42754;0.000;0.000;2022-09-06T05:39:06;7.53;;;5.10;;
56868;SDS011;42754;0.000;0.000;2022-09-06T05:41:31;8.13;;;4.85;;
56868;SDS011;42754;0.000;0.000;2022-09-06T05:43:57;8.50;;;4.80;;
56868;SDS011;42754;0.000;0.000;2022-09-06T05:46:24;9.90;;;5.28;;
56868;SDS011;42754;0.000;0.000;2022-09-06T05:48:57;9.02;;;5.07;;
56868;SDS011;42754;0.000;0.000;2022-09-06T05:51:28;6.45;;;4.90;;
56868;SDS011;42754;0.000;0.000;2022-09-06T05:53:55;7.13;;;5.10;;
56868;SDS011;42754;0.000;0.000;2022-09-06T05:56:20;8.23;;;5.28;;
56868;SDS011;42754;0.000;0.000;2022-09-06T05:58:46;7.38;;;5.00;;
56868;SDS011;42754;0.000;0.000;2022-09-06T06:01:16;6.95;;;5.00;;
56868;SDS011;42754;0.000;0.000;2022-09-06T06:03:48;7.75;;;5.10;;
56868;SDS011;42754;0.000;0.000;2022-09-06T06:06:15;7.85;;;4.72;;
56868;SDS011;42754;0.000;0.000;2022-09-06T06:08:41;9.07;;;5.65;;
56868;SDS011;42754;0.000;0.000;2022-09-06T06:11:06;9.18;;;5.97;;
56868;SDS011;42754;0.000;0.000;2022-09-06T06:13:32;7.25;;;4.88;;
56868;SDS011;42754;0.000;0.000;2022-09-06T06:16:00;9.48;;;5.32;;
56868;SDS011;42754;0.000;0.000;2022-09-06T06:18:29;12.13;;;5.30;;
56868;SDS011;42754;0.000;0.000;2022-09-06T06:21:14;7.50;;;5.10;;
56868;SDS011;42754;0.000;0.000;2022-09-06T06:23:45;7.75;;;5.53;;
56868;SDS011;42754;0.000;0.000;2022-09-06T06:26:19;10.82;;;5.93;;
56868;SDS011;42754;0.000;0.000;2022-09-06T06:28:45;8.15;;;5.75;;
56868;SDS011;42754;0.000;0.000;2022-09-06T06:31:13;9.68;;;5.32;;
56868;SDS011;42754;0.000;0.000;2022-09-06T06:33:39;7.25;;;5.25;;
56868;SDS011;42754;0.000;0.000;2022-09-06T06:36:15;6.68;;;4.78;;
56868;SDS011;42754;0.000;0.000;2022-09-06T06:38:43;7.00;;;5.00;;
56868;SDS011;42754;0.000;0.000;2022-09-06T06:41:10;10.02;;;5.55;;
56868;SDS011;42754;0.000;0.000;2022-09-06T06:43:37;6.47;;;4.80;;
56868;SDS011;42754;0.000;0.000;2022-09-06T06:46:04;10.70;;;5.10;;
56868;SDS011;42754;0.000;0.000;2022-09-06T06:48:34;6.60;;;4.93;;
56868;SDS011;42754;0.000;0.000;2022-09-06T06:51:01;7.05;;;5.13;;
56868;SDS011;42754;0.000;0.000;2022-09-06T06:53:27;6.93;;;5.18;;
56868;SDS011;42754;0.000;0.000;2022-09-06T06:55:53;11.55;;;6.22;;
56868;SDS011;42754;0.000;0.000;2022-09-06T06:58:18;12.63;;;6.45;;
56868;SDS011;42754;0.000;0.000;2022-09-06T07:00:45;9.50;;;6.45;;
56868;SDS011;42754;0.000;0.000;2022-09-06T07:03:11;9.80;;;6.55;;
56868;SDS011;42754;0.000;0.000;2022-09-06T07:05:37;11.82;;;6.47;;
56868;SDS011;42754;0.000;0.000;2022-09-06T07:08:04;10.77;;;6.80;;
56868;SDS011;42754;0.000;0.000;2022-09-06T07:10:31;8.98;;;6.75;;
56868;SDS011;42754;0.000;0.000;2022-09-06T07:12:58;10.93;;;7.63;;
56868;SDS011;42754;0.000;0.000;2022-09-06T07:15:24;11.88;;;8.07;;
56868;SDS011;42754;0.000;0.000;2022-09-06T07:17:49;10.52;;;7.07;;
56868;SDS011;42754;0.000;0.000;2022-09-06T07:20:17;11.93;;;7.65;;
56868;SDS011;42754;0.000;0.000;2022-09-06T07:22:44;10.25;;;7.38;;
56868;SDS011;42754;0.000;0.000;2022-09-06T07:25:10;11.77;;;7.72;;
56868;SDS011;42754;0.000;0.000;2022-09-06T07:27:37;11.13;;;7.70;;
56868;SDS011;42754;0.000;0.000;2022-09-06T07:30:03;13.82;;;7.35;;
56868;SDS011;42754;0.000;0.000;2022-09-06T07:32:29;10.45;;;7.28;;
56868;SDS011;42754;0.000;0.000;2022-09-06T07:34:57;14.68;;;8.57;;
56868;SDS011;42754;0.000;0.000;2022-09-06T07:37:23;12.32;;;7.20;;
56868;SDS011;42754;0.000;0.000;2022-09-06T07:39:48;14.48;;;8.55;;
56868;SDS011;42754;0.000;0.000;2022-09-06T07:42:15;12.95;;;7.25;;
56868;SDS011;42754;0.000;0.000;2022-09-06T07:44:40;11.25;;;7.82;;
56868;SDS011;42754;0.000;0.000;2022-09-06T07:47:06;10.60;;;7.30;;
56868;SDS011;42754;0.000;0.000;2022-09-06T07:49:32;12.02;;;6.90;;
56868;SDS011;42754;0.000;0.000;2022-09-06T07:51:58;8.98;;;6.32;;
56868;SDS011;42754;0.000;0.000;2022-09-06T07:54:24;13.50;;;7.13;;
56868;SDS011;42754;0.000;0.000;2022-09-06T07:56:50;11.23;;;7.18;;
56868;SDS011;42754;0.000;0.000;2022-09-06T07:59:15;9.95;;;7.32;;
56868;SDS011;42754;0.000;0.000;2022-09-06T08:01:42;10.27;;;6.82;;
56868;SDS011;42754;0.000;0.000;2022-09-06T08:04:08;11.45;;;7.55;;
56868;SDS011;42754;0.000;0.000;2022-09-06T08:06:37;16.33;;;8.43;;
56868;SDS011;42754;0.000;0.000;2022-09-06T08:09:05;10.35;;;5.63;;
56868;SDS011;42754;0.000;0.000;2022-09-06T08:11:32;12.57;;;7.55;;
56868;SDS011;42754;0.000;0.000;2022-09-06T08:14:00;12.73;;;6.53;;
56868;SDS011;42754;0.000;0.000;2022-09-06T08:16:28;12.35;;;7.63;;
56868;SDS011;42754;0.000;0.000;2022-09-06T08:18:56;12.15;;;7.78;;
56868;SDS011;42754;0.000;0.000;2022-09-06T08:21:24;11.85;;;6.88;;
56868;SDS011;42754;0.000;0.000;2022-09-06T08:23:54;12.80;;;6.57;;
56868;SDS011;42754;0.000;0.000;2022-09-06T08:26:24;9.00;;;6.45;;
56868;SDS011;42754;0.000;0.000;2022-09-06T08:28:53;10.77;;;6.88;;
56868;SDS011;42754;0.000;0.000;2022-09-06T08:31:24;11.35;;;5.25;;
56868;SDS011;42754;0.000;0.000;2022-09-06T08:33:51;12.75;;;7.32;;
56868;SDS011;42754;0.000;0.000;2022-09-06T08:36:17;8.63;;;5.55;;
56868;SDS011;42754;0.000;0.000;2022-09-06T08:38:43;9.85;;;5.90;;
56868;SDS011;42754;0.000;0.000;2022-09-06T08:41:22;9.80;;;5.15;;
56868;SDS011;42754;0.000;0.000;2022-09-06T08:49:29;8.70;;;4.70;;
56868;SDS011;42754;0.000;0.000;2022-09-06T09:00:02;7.47;;;3.80;;
56868;SDS011;42754;0.000;0.000;2022-09-06T09:02:56;6.82;;;4.72;;
56868;SDS011;42754;0.000;0.000;2022-09-06T09:05:34;10.93;;;4.70;;
56868;SDS011;42754;0.000;0.000;2022-09-06T09:11:00;7.60;;;3.67;;
56868;SDS011;42754;0.000;0.000;2022-09-06T09:15:57;6.22;;;4.05;;
56868;SDS011;42754;0.000;0.000;2022-09-06T09:18:28;8.55;;;4.32;;
56868;SDS011;42754;0.000;0.000;2022-09-06T09:20:57;4.25;;;3.28;;
56868;SDS011;42754;0.000;0.000;2022-09-06T09:23:23;6.95;;;4.13;;
56868;SDS011;42754;0.000;0.000;2022-09-06T09:25:49;9.95;;;5.03;;
56868;SDS011;42754;0.000;0.000;2022-09-06T09:28:17;6.03;;;4.35;;
56868;SDS011;42754;0.000;0.000;2022-09-06T09:30:50;10.10;;;4.95;;
56868;SDS011;42754;0.000;0.000;2022-09-06T09:35:46;7.68;;;5.20;;
56868;SDS011;42754;0.000;0.000;2022-09-06T09:38:12;5.97;;;3.90;;
56868;SDS011;42754;0.000;0.000;2022-09-06T09:40:59;4.85;;;3.40;;
56868;SDS011;42754;0.000;0.000;2022-09-06T09:43:32;5.20;;;3.50;;
56868;SDS011;42754;0.000;0.000;2022-09-06T09:48:37;12.35;;;4.80;;
56868;SDS011;42754;0.000;0.000;2022-09-06T09:51:15;7.30;;;3.70;;
56868;SDS011;42754;0.000;0.000;2022-09-06T09:53:48;6.95;;;4.00;;
56868;SDS011;42754;0.000;0.000;2022-09-06T09:56:26;7.32;;;3.10;;
56868;SDS011;42754;0.000;0.000;2022-09-06T09:58:56;4.75;;;2.97;;
56868;SDS011;42754;0.000;0.000;2022-09-06T10:01:30;3.95;;;2.67;;
56868;SDS011;42754;0.000;0.000;2022-09-06T10:04:08;2.53;;;1.83;;
56868;SDS011;42754;0.000;0.000;2022-09-06T10:06:36;2.65;;;2.20;;
56868;SDS011;42754;0.000;0.000;2022-09-06T10:09:16;4.43;;;3.00;;
56868;SDS011;42754;0.000;0.000;2022-09-06T10:11:52;4.40;;;2.25;;
56868;SDS011;42754;0.000;0.000;2022-09-06T10:14:24;6.93;;;3.65;;
56868;SDS011;42754;0.000;0.000;2022-09-06T10:17:07;4.82;;;2.80;;
56868;SDS011;42754;0.000;0.000;2022-09-06T10:19:43;6.07;;;3.47;;
56868;SDS011;42754;0.000;0.000;2022-09-06T10:27:35;2.03;;;1.63;;
56868;SDS011;42754;0.000;0.000;2022-09-06T10:30:34;5.57;;;2.00;;
56868;SDS011;42754;0.000;0.000;2022-09-06T10:33:22;4.65;;;2.40;;
56868;SDS011;42754;0.000;0.000;2022-09-06T10:35:55;5.18;;;2.47;;
56868;SDS011;42754;0.000;0.000;2022-09-06T10:38:44;5.72;;;3.80;;
56868;SDS011;42754;0.000;0.000;2022-09-06T10:44:53;5.88;;;3.42;;
56868;SDS011;42754;0.000;0.000;2022-09-06T10:47:13;6.25;;;2.58;;
56868;SDS011;42754;0.000;0.000;2022-09-06T10:49:48;3.60;;;2.58;;
56868;SDS011;42754;0.000;0.000;2022-09-06T10:52:21;3.55;;;2.70;;
56868;SDS011;42754;0.000;0.000;2022-09-06T10:54:52;5.80;;;3.05;;
56868;SDS011;42754;0.000;0.000;2022-09-06T10:57:22;4.32;;;2.10;;
56868;SDS011;42754;0.000;0.000;2022-09-06T10:59:59;4.82;;;2.65;;
56868;SDS011;42754;0.000;0.000;2022-09-06T11:05:52;8.40;;;2.35;;
56868;SDS011;42754;0.000;0.000;2022-09-06T11:11:15;3.83;;;2.40;;
56868;SDS011;42754;0.000;0.000;2022-09-06T11:13:50;3.72;;;2.58;;
56868;SDS011;42754;0.000;0.000;2022-09-06T11:16:23;3.47;;;1.90;;
56868;SDS011;42754;0.000;0.000;2022-09-06T11:18:55;4.22;;;1.83;;
56868;SDS011;42754;0.000;0.000;2022-09-06T11:24:14;3.80;;;2.30;;
56868;SDS011;42754;0.000;0.000;2022-09-06T11:29:41;6.15;;;2.38;;
56868;SDS011;42754;0.000;0.000;2022-09-06T11:32:27;4.22;;;2.20;;
56868;SDS011;42754;0.000;0.000;2022-09-06T11:35:26;5.30;;;2.05;;
56868;SDS011;42754;0.000;0.000;2022-09-06T11:38:14;2.40;;;1.70;;
56868;SDS011;42754;0.000;0.000;2022-09-06T11:40:42;4.70;;;2.05;;
56868;SDS011;42754;0.000;0.000;2022-09-06T11:43:15;5.03;;;2.00;;
56868;SDS011;42754;0.000;0.000;2022-09-06T11:46:01;2.45;;;1.65;;
56868;SDS011;42754;0.000;0.000;2022-09-06T11:48:31;3.85;;;1.75;;
56868;SDS011;42754;0.000;0.000;2022-09-06T11:51:23;4.18;;;1.75;;
56868;SDS011;42754;0.000;0.000;2022-09-06T11:56:31;2.70;;;1.30;;
56868;SDS011;42754;0.000;0.000;2022-09-06T12:07:27;5.90;;;2.28;;
56868;SDS011;42754;0.000;0.000;2022-09-06T12:09:54;5.95;;;1.70;;
56868;SDS011;42754;0.000;0.000;2022-09-06T12:12:39;3.08;;;2.05;;
56868;SDS011;42754;0.000;0.000;2022-09-06T12:15:25;3.88;;;1.73;;
56868;SDS011;42754;0.000;0.000;2022-09-06T12:17:56;3.65;;;1.90;;
56868;SDS011;42754;0.000;0.000;2022-09-06T12:26:02;4.22;;;2.13;;
56868;SDS011;42754;0.000;0.000;2022-09-06T12:30:59;2.55;;;1.95;;
56868;SDS011;42754;0.000;0.000;2022-09-06T12:33:29;4.28;;;1.95;;
56868;SDS011;42754;0.000;0.000;2022-09-06T12:36:13;3.38;;;1.65;;
56868;SDS011;42754;0.000;0.000;2022-09-06T12:39:19;4.15;;;1.83;;
56868;SDS011;42754;0.000;0.000;2022-09-06T12:41:39;8.23;;;2.35;;
56868;SDS011;42754;0.000;0.000;2022-09-06T12:44:08;1.92;;;1.50;;
56868;SDS011;42754;0.000;0.000;2022-09-06T12:46:34;10.95;;;1.73;;
56868;SDS011;42754;0.000;0.000;2022-09-06T12:49:07;3.17;;;1.50;;
56868;SDS011;42754;0.000;0.000;2022-09-06T12:51:37;4.45;;;1.73;;
56868;SDS011;42754;0.000;0.000;2022-09-06T12:54:14;5.05;;;1.60;;
56868;SDS011;42754;0.000;0.000;2022-09-06T12:56:46;4.15;;;1.52;;
56868;SDS011;42754;0.000;0.000;2022-09-06T12:59:23;5.22;;;1.80;;
56868;SDS011;42754;0.000;0.000;2022-09-06T13:04:29;6.38;;;1.67;;
56868;SDS011;42754;0.000;0.000;2022-09-06T13:07:11;2.55;;;1.33;;
56868;SDS011;42754;0.000;0.000;2022-09-06T13:09:40;4.60;;;1.80;;
56868;SDS011;42754;0.000;0.000;2022-09-06T13:12:13;3.25;;;1.40;;
56868;SDS011;42754;0.000;0.000;2022-09-06T13:14:57;4.72;;;1.55;;
56868;SDS011;42754;0.000;0.000;2022-09-06T13:17:28;2.50;;;1.50;;
56868;SDS011;42754;0.000;0.000;2022-09-06T13:19:54;6.13;;;2.25;;
56868;SDS011;42754;0.000;0.000;2022-09-06T13:25:31;4.15;;;2.13;;
56868;SDS011;42754;0.000;0.000;2022-09-06T13:27:57;1.75;;;1.30;;
56868;SDS011;42754;0.000;0.000;2022-09-06T13:30:29;5.22;;;2.35;;
56868;SDS011;42754;0.000;0.000;2022-09-06T13:33:00;3.17;;;2.00;;
56868;SDS011;42754;0.000;0.000;2022-09-06T13:35:29;5.05;;;2.10;;
56868;SDS011;42754;0.000;0.000;2022-09-06T13:43:59;4.10;;;1.80;;
56868;SDS011;42754;0.000;0.000;2022-09-06T13:49:06;1.73;;;1.33;;
56868;SDS011;42754;0.000;0.000;2022-09-06T13:51:32;4.50;;;1.30;;
56868;SDS011;42754;0.000;0.000;2022-09-06T13:54:16;1.98;;;1.20;;
56868;SDS011;42754;0.000;0.000;2022-09-06T13:56:42;2.47;;;1.25;;
56868;SDS011;42754;0.000;0.000;2022-09-06T13:59:09;3.78;;;1.45;;
56868;SDS011;42754;0.000;0.000;2022-09-06T14:01:35;4.20;;;1.60;;
56868;SDS011;42754;0.000;0.000;2022-09-06T14:04:02;3.72;;;1.30;;
56868;SDS011;42754;0.000;0.000;2022-09-06T14:06:29;1.63;;;1.20;;
56868;SDS011;42754;0.000;0.000;2022-09-06T14:08:54;2.15;;;1.30;;
56868;SDS011;42754;0.000;0.000;2022-09-06T14:11:20;2.15;;;1.20;;
56868;SDS011;42754;0.000;0.000;2022-09-06T14:13:46;2.13;;;1.38;;
56868;SDS011;42754;0.000;0.000;2022-09-06T14:16:12;1.77;;;1.50;;
56868;SDS011;42754;0.000;0.000;2022-09-06T14:18:38;3.50;;;1.38;;
56868;SDS011;42754;0.000;0.000;2022-09-06T14:21:04;3.50;;;1.60;;
56868;SDS011;42754;0.000;0.000;2022-09-06T14:23:31;3.17;;;1.42;;
56868;SDS011;42754;0.000;0.000;2022-09-06T14:25:58;2.45;;;1.63;;
56868;SDS011;42754;0.000;0.000;2022-09-06T14:28:26;2.28;;;1.60;;
56868;SDS011;42754;0.000;0.000;2022-09-06T14:31:08;1.85;;;1.30;;
56868;SDS011;42754;0.000;0.000;2022-09-06T14:33:35;3.53;;;1.42;;
56868;SDS011;42754;0.000;0.000;2022-09-06T14:36:03;1.67;;;1.17;;
56868;SDS011;42754;0.000;0.000;2022-09-06T14:38:34;3.33;;;1.50;;
56868;SDS011;42754;0.000;0.000;2022-09-06T14:41:03;3.95;;;1.40;;
56868;SDS011;42754;0.000;0.000;2022-09-06T14:43:30;5.28;;;1.70;;
56868;SDS011;42754;0.000;0.000;2022-09-06T14:46:06;2.13;;;1.60;;
56868;SDS011;42754;0.000;0.000;2022-09-06T14:48:35;2.45;;;1.25;;
56868;SDS011;42754;0.000;0.000;2022-09-06T14:53:36;3.15;;;1.35;;
56868;SDS011;42754;0.000;0.000;2022-09-06T14:56:03;5.72;;;2.10;;
56868;SDS011;42754;0.000;0.000;2022-09-06T14:58:31;2.92;;;1.77;;
56868;SDS011;42754;0.000;0.000;2022-09-06T15:01:32;2.50;;;1.20;;
56868;SDS011;42754;0.000;0.000;2022-09-06T15:03:56;2.72;;;1.40;;
56868;SDS011;42754;0.000;0.000;2022-09-06T15:06:25;3.65;;;1.52;;
56868;SDS011;42754;0.000;0.000;2022-09-06T15:08:52;3.65;;;1.40;;
56868;SDS011;42754;0.000;0.000;2022-09-06T15:11:28;2.05;;;1.40;;
56868;SDS011;42754;0.000;0.000;2022-09-06T15:13:58;3.72;;;1.70;;
56868;SDS011;42754;0.000;0.000;2022-09-06T15:16:25;3.38;;;1.42;;
56868;SDS011;42754;0.000;0.000;2022-09-06T15:18:52;2.58;;;1.58;;
56868;SDS011;42754;0.000;0.000;2022-09-06T15:21:18;3.97;;;1.40;;
56868;SDS011;42754;0.000;0.000;2022-09-06T15:23:44;2.72;;;1.50;;
56868;SDS011;42754;0.000;0.000;2022-09-06T15:26:10;3.28;;;1.50;;
56868;SDS011;42754;0.000;0.000;2022-09-06T15:28:38;4.15;;;1.77;;
56868;SDS011;42754;0.000;0.000;2022-09-06T15:31:05;3.10;;;1.75;;
56868;SDS011;42754;0.000;0.000;2022-09-06T15:33:32;2.42;;;1.40;;
56868;SDS011;42754;0.000;0.000;2022-09-06T15:35:59;2.13;;;1.63;;
56868;SDS011;42754;0.000;0.000;2022-09-06T15:38:29;2.83;;;1.40;;
56868;SDS011;42754;0.000;0.000;2022-09-06T15:41:06;3.30;;;1.55;;
56868;SDS011;42754;0.000;0.000;2022-09-06T15:43:33;3.47;;;1.40;;
56868;SDS011;42754;0.000;0.000;2022-09-06T15:46:01;3.85;;;1.30;;
56868;SDS011;42754;0.000;0.000;2022-09-06T15:48:27;3.45;;;1.35;;
56868;SDS011;42754;0.000;0.000;2022-09-06T15:50:53;5.90;;;1.55;;
56868;SDS011;42754;0.000;0.000;2022-09-06T15:53:19;3.83;;;1.30;;
56868;SDS011;42754;0.000;0.000;2022-09-06T15:55:45;4.88;;;1.33;;
56868;SDS011;42754;0.000;0.000;2022-09-06T15:58:20;3.33;;;1.73;;
56868;SDS011;42754;0.000;0.000;2022-09-06T16:01:09;2.60;;;1.23;;
56868;SDS011;42754;0.000;0.000;2022-09-06T16:03:42;2.53;;;1.40;;
56868;SDS011;42754;0.000;0.000;2022-09-06T16:06:14;1.83;;;1.20;;
56868;SDS011;42754;0.000;0.000;2022-09-06T16:08:45;1.38;;;1.27;;
56868;SDS011;42754;0.000;0.000;2022-09-06T16:11:13;1.90;;;1.42;;
56868;SDS011;42754;0.000;0.000;2022-09-06T16:13:51;3.08;;;1.75;;
56868;SDS011;42754;0.000;0.000;2022-09-06T16:16:17;1.90;;;1.25;;
56868;SDS011;42754;0.000;0.000;2022-09-06T16:18:44;4.22;;;1.40;;
56868;SDS011;42754;0.000;0.000;2022-09-06T16:21:17;1.95;;;1.33;;
56868;SDS011;42754;0.000;0.000;2022-09-06T16:23:52;2.88;;;1.40;;
56868;SDS011;42754;0.000;0.000;2022-09-06T16:26:20;3.42;;;2.20;;
56868;SDS011;42754;0.000;0.000;2022-09-06T16:28:48;3.60;;;1.40;;
56868;SDS011;42754;0.000;0.000;2022-09-06T16:31:15;3.72;;;1.52;;
56868;SDS011;42754;0.000;0.000;2022-09-06T16:33:41;2.47;;;1.48;;
56868;SDS011;42754;0.000;0.000;2022-09-06T16:36:09;7.55;;;1.27;;
56868;SDS011;42754;0.000;0.000;2022-09-06T16:38:36;3.05;;;1.40;;
56868;SDS011;42754;0.000;0.000;2022-09-06T16:41:13;2.35;;;1.70;;
56868;SDS011;42754;0.000;0.000;2022-09-06T16:43:45;3.50;;;1.70;;
56868;SDS011;42754;0.000;0.000;2022-09-06T16:46:13;2.40;;;1.63;;
56868;SDS011;42754;0.000;0.000;2022-09-06T16:48:39;3.22;;;1.58;;
56868;SDS011;42754;0.000;0.000;2022-09-06T16:51:12;4.25;;;1.50;;
56868;SDS011;42754;0.000;0.000;2022-09-06T16:53:40;2.92;;;1.30;;
56868;SDS011;42754;0.000;0.000;2022-09-06T16:56:08;4.25;;;1.45;;
56868;SDS011;42754;0.000;0.000;2022-09-06T16:58:35;2.53;;;1.40;;
56868;SDS011;42754;0.000;0.000;2022-09-06T17:01:01;5.82;;;1.40;;
56868;SDS011;42754;0.000;0.000;2022-09-06T17:03:26;2.35;;;1.30;;
56868;SDS011;42754;0.000;0.000;2022-09-06T17:05:52;4.80;;;1.55;;
56868;SDS011;42754;0.000;0.000;2022-09-06T17:08:19;2.53;;;1.20;;
56868;SDS011;42754;0.000;0.000;2022-09-06T17:10:45;3.97;;;1.73;;
56868;SDS011;42754;0.000;0.000;2022-09-06T17:13:11;2.30;;;1.98;;